• Join FlightAware (Why Join?)
  • Login
  • US Flag 
02:27PM EDT


 

Airport Tracker/Info


-or-


 

Live Flight TrackerFlight Track Log ✈ EJM242 ✈ 13-May-2013 ✈ KHPN - KAIK

Flight Track Log - Related Links

Times and Time Zones

All times are in EDT time to prevent confusion due to time zone crossing. See the EJM242 flight status page for this flight to view local times or setup timezone preferences in your user account.

Time Position Orientation Groundspeed Altitude Reporting Facility
EDT Latitude Longitude Course Direction KTS MPH feet Rate Location/Type
08:38AM 41.0833 -73.7833 239° Southwest 211 243 3,500  Level New York TRACON
08:39AM 41.0667 -73.8667 255° West 247 284 7,000 4,200 Climbing New York TRACON
08:40AM 41.0333 -73.9333 236° Southwest 246 283 12,000 3,960 Climbing New York TRACON
08:41AM 40.9833 -74.0167 232° Southwest 280 322 15,000 1,500 Climbing New York TRACON
08:42AM 40.9333 -74.1000 232° Southwest 310 357 15,000 180 Level New York TRACON
08:44AM 40.7610 -74.2925 239° Southwest  Level FlightAware Approximate
08:44AM 40.8456 -74.2603 234° Southwest 314 361 15,500  Level New York Center
08:45AM 40.7842 -74.3642 232° Southwest 314 361 17,000 780 Climbing New York Center
08:46AM 40.7269 -74.4569 231° Southwest 324 373 17,100 1,380 Climbing New York Center
08:47AM 40.6786 -74.5392 232° Southwest 329 379 19,900 3,240 Climbing New York Center
08:48AM 40.6378 -74.6408 242° Southwest 329 379 23,600 3,780 Climbing New York Center
08:49AM 40.6258 -74.7467 262° West 307 353 27,400 2,340 Climbing New York Center
08:50AM 40.6117 -74.8606 261° West 300 345 28,400 1,260 Climbing New York Center
08:51AM 40.5664 -74.9644 240° Southwest 313 360 29,900 1,500 Climbing New York Center
08:52AM 40.4925 -75.0447 220° Southwest 323 372 31,400 1,380 Climbing New York Center
08:53AM 40.4189 -75.1247 220° Southwest 337 388 32,800 1,320 Climbing New York Center
08:54AM 40.3447 -75.2069 220° Southwest 349 402 34,100 1,140 Climbing New York Center
08:55AM 40.2708 -75.2894 220° Southwest 354 407 35,100 960 Climbing New York Center
08:56AM 40.1947 -75.3742 220° Southwest 354 407 36,100 960 Climbing New York Center
08:57AM 40.1161 -75.4583 219° Southwest 360 414 37,100 960 Climbing New York Center
08:58AM 40.0400 -75.5400 219° Southwest 365 420 38,000 420 Climbing New York Center
08:59AM 39.9614 -75.6269 220° Southwest 370 426 38,000  Level New York Center
09:00AM 39.8775 -75.7400 226° Southwest 383 441 38,000  Level New York Center
09:01AM 39.8083 -75.8486 230° Southwest 399 459 38,000  Level New York Center
09:03AM 39.7131 -75.9989 231° Southwest 386 444 38,000  Level Washington Center
09:04AM 39.6458 -76.1061 231° Southwest 386 444 38,000  Level Washington Center
09:05AM 39.5786 -76.2136 231° Southwest 392 451 38,000  Level Washington Center
09:06AM 39.5092 -76.3231 231° Southwest 392 451 38,000  Level Washington Center
09:07AM 39.4397 -76.4300 230° Southwest 397 457 38,000  Level Washington Center
09:08AM 39.3661 -76.5364 228° Southwest 403 464 38,000  Level Washington Center
09:09AM 39.2986 -76.6431 231° Southwest 403 464 38,000  Level Washington Center
09:10AM 39.2308 -76.7492 231° Southwest 398 458 38,000  Level Washington Center
09:11AM 39.1631 -76.8550 230° Southwest 398 458 38,000  Level Washington Center
09:12AM 39.0931 -76.9636 230° Southwest 398 458 38,000  Level Washington Center
09:13AM 39.0211 -77.0639 227° Southwest 398 458 38,000  Level Washington Center
09:14AM 38.9303 -77.1633 220° Southwest 398 458 38,000  Level Washington Center
09:15AM 38.8456 -77.2547 220° Southwest 398 458 38,000  Level Washington Center
09:16AM 38.7631 -77.3489 222° Southwest 398 458 38,000  Level Washington Center
09:17AM 38.6783 -77.4400 220° Southwest 398 458 38,000  Level Washington Center
09:18AM 38.5956 -77.5308 221° Southwest 398 458 38,000  Level Washington Center
09:19AM 38.5106 -77.6214 220° Southwest 398 458 38,000  Level Washington Center
09:20AM 38.4278 -77.7119 221° Southwest 398 458 38,000  Level Washington Center
09:21AM 38.3447 -77.8022 220° Southwest 398 458 38,000  Level Washington Center
09:22AM 38.2597 -77.8922 220° Southwest 398 458 38,000  Level Washington Center
09:23AM 38.1767 -77.9822 220° Southwest 398 458 38,000  Level Washington Center
09:24AM 38.0933 -78.0719 220° Southwest 393 452 38,000  Level Washington Center
09:25AM 38.0272 -78.1408 219° Southwest 393 452 38,000  Level Washington Center
09:26AM 37.9356 -78.2325 218° Southwest 393 452 38,000  Level Washington Center
09:27AM 37.8506 -78.3136 217° Southwest 393 452 38,000  Level Washington Center
09:28AM 37.7608 -78.3972 216° Southwest 393 452 38,000  Level Washington Center
09:29AM 37.6669 -78.4881 217° Southwest 399 459 38,000  Level Washington Center
09:30AM 37.5794 -78.5686 216° Southwest 399 459 38,000  Level Washington Center
09:31AM 37.4897 -78.6517 216° Southwest 399 459 38,000  Level Washington Center
09:32AM 37.4022 -78.7344 217° Southwest 399 459 38,000  Level Washington Center
09:33AM 37.3144 -78.8169 217° Southwest 399 459 38,000  Level Washington Center
09:34AM 37.2353 -78.8867 215° Southwest 399 459 38,000  Level Washington Center
09:35AM 37.1475 -78.9689 217° Southwest 399 459 38,000  Level Washington Center
09:36AM 37.0597 -79.0508 217° Southwest 399 459 38,000  Level Washington Center
09:37AM 36.9694 -79.1353 217° Southwest 399 459 38,000  Level Washington Center
09:38AM 36.8836 -79.2144 216° Southwest 399 459 38,000  Level Washington Center
09:39AM 36.7850 -79.3031 216° Southwest 399 459 38,000  Level Washington Center
09:40AM 36.6969 -79.3844 217° Southwest 399 459 38,000  Level Washington Center
09:41AM 36.6108 -79.4656 217° Southwest 399 459 38,000  Level Washington Center
09:42AM 36.5228 -79.5439 216° Southwest 399 459 38,000  Level Washington Center
09:43AM 36.4411 -79.6172 216° Southwest 399 459 38,000  Level Washington Center
09:44AM 36.2800 -79.7608 216° Southwest 402 463 38,000  Level Atlanta Center
09:45AM 36.1969 -79.8347 216° Southwest 402 463 38,000  Level Atlanta Center
09:46AM 36.1100 -79.9136 216° Southwest 397 457 38,000 -420 Level Atlanta Center
09:47AM 36.0186 -79.9903 214° Southwest 397 457 37,200 -900 Descending Atlanta Center
09:48AM 35.9117 -80.0392 200° South 397 457 36,200 -1,020 Descending Atlanta Center
09:49AM 35.8092 -80.0928 203° Southwest 403 464 35,200 -1,080 Descending Atlanta Center
09:50AM 35.6961 -80.1469 201° Southwest 403 464 34,100 -600 Descending Atlanta Center
09:51AM 35.5978 -80.2028 205° Southwest 397 457 34,000 -120 Descending Atlanta Center
09:52AM 35.4972 -80.2533 202° Southwest 397 457 33,900 -600 Descending Atlanta Center
09:53AM 35.3986 -80.3011 202° Southwest 391 450 32,900 -1,020 Descending Atlanta Center
09:54AM 35.2997 -80.3514 203° Southwest 388 447 31,900 -1,020 Descending Atlanta Center
09:55AM 35.1969 -80.4017 202° Southwest 394 453 30,900 -960 Descending Atlanta Center
09:56AM 35.1086 -80.4461 202° Southwest 387 445 30,000 -960 Descending Atlanta Center
09:57AM 35.0078 -80.4961 202° Southwest 394 453 29,000 -1,020 Descending Atlanta Center
09:58AM 34.9069 -80.5461 202° Southwest 394 453 28,000 -1,200 Descending Atlanta Center
10:01AM 34.6742 -80.6608 202° Southwest 393 452 25,000 -1,500 Descending Jacksonville Center
10:02AM 34.5581 -80.6992 195° South 392 451 23,100 -2,100 Descending Jacksonville Center
10:03AM 34.4539 -80.7144 187° South 392 451 20,800 -2,100 Descending Jacksonville Center
10:04AM 34.3478 -80.7297 187° South 386 444 18,900 -1,800 Descending Jacksonville Center
10:05AM 34.2625 -80.7469 189° South 380 437 17,200 -1,860 Descending Jacksonville Center
10:06AM 34.1628 -80.7694 191° South 365 420 15,200 -1,920 Descending Jacksonville Center
10:07AM 34.0714 -80.7942 193° South 360 414 13,400 -1,500 Descending Jacksonville Center
10:08AM 34.0122 -80.8808 231° Southwest 329 379 12,200 -1,200 Descending Jacksonville Center
10:09AM 33.9658 -80.9769 240° Southwest 324 373 11,100 -1,020 Descending Jacksonville Center
10:10AM 33.9214 -81.0831 243° Southwest 324 373 10,200 -660 Descending Jacksonville Center
10:11AM 33.8831 -81.1714 242° Southwest 317 365 9,800 -1,020 Descending Jacksonville Center
10:12AM 33.8486 -81.2472 241° Southwest 289 333 8,200 -1,500 Descending Jacksonville Center
10:13AM 33.8142 -81.3228 241° Southwest 274 315 6,800 -1,320 Descending Jacksonville Center
10:14AM 33.7794 -81.3983 241° Southwest 267 307 5,600 -1,380 Descending Jacksonville Center
10:15AM 33.7514 -81.4786 247° West 267 307 4,100 -1,500 Descending Jacksonville Center